Time;durP1;ratioP1;P1;durP2;ratioP2;P2;SDS_P1;SDS_P2;PMS_P1;PMS_P2;Temp;Humidity;BMP_temperature;BMP_pressure;BME280_temperature;BME280_humidity;BME280_pressure;Samples;Min_cycle;Max_cycle;Signal;HPM_P1;HPM_P2
2021/05/01 00:01:28;;;;;;;23.05;18.98;;;8.00;99.90;;;;;;5123071;27;20494;-83
2021/05/01 00:03:54;;;;;;;22.13;18.98;;;8.00;99.90;;;;;;5123682;27;20051;-82
2021/05/01 00:06:40;;;;;;;23.48;18.75;;;8.00;99.90;;;;;;5123099;27;20490;-83
2021/05/01 00:09:06;;;;;;;25.15;19.85;;;7.90;99.90;;;;;;5123157;27;20083;-83
2021/05/01 00:11:33;;;;;;;22.92;19.52;;;7.90;99.90;;;;;;5123300;27;20548;-83
2021/05/01 00:14:26;;;;;;;24.00;19.70;;;7.90;99.90;;;;;;5123606;27;20047;-83
2021/05/01 00:16:54;;;;;;;23.23;20.67;;;7.80;99.90;;;;;;5123457;27;20103;-83
2021/05/01 00:19:21;;;;;;;27.55;20.05;;;7.80;99.90;;;;;;5123456;27;20047;-83
2021/05/01 00:22:22;;;;;;;26.23;20.02;;;7.80;99.90;;;;;;5122890;27;20541;-82
2021/05/01 00:24:49;;;;;;;23.67;19.85;;;7.80;99.90;;;;;;5141158;27;20039;-83
2021/05/01 00:27:15;;;;;;;23.73;19.02;;;7.80;99.90;;;;;;5123449;27;20100;-83
2021/05/01 00:29:56;;;;;;;23.73;19.58;;;7.80;99.90;;;;;;5123675;27;20138;-83
2021/05/01 00:32:23;;;;;;;24.20;19.35;;;7.80;99.90;;;;;;5122982;27;20130;-83
2021/05/01 00:34:49;;;;;;;25.15;20.23;;;7.80;99.90;;;;;;5123369;27;20130;-83
2021/05/01 00:38:01;;;;;;;23.80;19.63;;;7.70;99.90;;;;;;5123438;27;20053;-83
2021/05/01 00:40:28;;;;;;;26.27;20.45;;;7.70;99.90;;;;;;5142599;27;20073;-83
2021/05/01 00:42:54;;;;;;;23.90;20.48;;;7.70;99.90;;;;;;5126405;27;20069;-84
2021/05/01 00:45:20;;;;;;;24.73;19.83;;;7.80;99.90;;;;;;5125595;27;20414;-83
2021/05/01 00:47:54;;;;;;;23.63;19.77;;;7.70;99.90;;;;;;5122818;27;20118;-83
2021/05/01 00:50:20;;;;;;;28.40;20.15;;;7.80;99.90;;;;;;5123132;27;20043;-83
2021/05/01 00:52:47;;;;;;;22.45;19.17;;;7.70;99.90;;;;;;5123240;27;20454;-83
2021/05/01 00:55:28;;;;;;;25.30;20.48;;;7.80;99.90;;;;;;5125234;27;20043;-83
2021/05/01 00:57:54;;;;;;;24.13;20.00;;;7.70;99.90;;;;;;5142078;27;20039;-84
2021/05/01 01:03:12;;;;;;;24.30;19.85;;;7.70;99.90;;;;;;5142251;27;20142;-85
2021/05/01 01:05:38;;;;;;;26.13;20.13;;;7.70;99.90;;;;;;5127720;27;20055;-83
2021/05/01 01:08:05;;;;;;;34.33;20.60;;;7.70;99.90;;;;;;5151552;27;20069;-83
2021/05/01 01:10:33;;;;;;;24.38;19.63;;;7.70;99.90;;;;;;5133823;27;20092;-83
2021/05/01 01:12:59;;;;;;;25.60;20.45;;;7.80;99.90;;;;;;5139909;27;20058;-83
2021/05/01 01:15:31;;;;;;;23.95;19.27;;;7.70;99.90;;;;;;5138884;27;20043;-83
2021/05/01 01:18:09;;;;;;;23.80;19.23;;;7.70;99.90;;;;;;5121322;27;20078;-83
2021/05/01 01:20:36;;;;;;;24.52;19.48;;;7.70;99.90;;;;;;5121354;27;20134;-83
2021/05/01 01:23:14;;;;;;;24.90;18.73;;;7.70;99.90;;;;;;5121239;27;20086;-83
2021/05/01 01:25:41;;;;;;;23.58;19.33;;;7.70;99.90;;;;;;5121253;27;20085;-83
2021/05/01 01:28:07;;;;;;;26.00;19.95;;;7.70;99.90;;;;;;5139689;27;20070;-84
2021/05/01 01:30:37;;;;;;;26.80;20.75;;;7.70;99.90;;;;;;5121320;27;20051;-83
2021/05/01 01:33:09;;;;;;;25.83;20.88;;;7.60;99.90;;;;;;5120250;27;20047;-83
2021/05/01 01:35:37;;;;;;;26.35;21.95;;;7.60;99.90;;;;;;5120245;27;20502;-83
2021/05/01 01:38:05;;;;;;;23.85;19.15;;;7.50;99.90;;;;;;5139340;27;20130;-83
2021/05/01 01:40:51;;;;;;;29.50;21.48;;;7.50;99.90;;;;;;5121277;27;20043;-83
2021/05/01 01:43:27;;;;;;;23.55;19.80;;;7.50;99.90;;;;;;5139436;27;20054;-83
2021/05/01 01:45:53;;;;;;;22.30;18.98;;;7.50;99.90;;;;;;5120801;27;20561;-83
2021/05/01 01:48:23;;;;;;;25.10;20.08;;;7.50;99.90;;;;;;5121683;27;20092;-83
2021/05/01 01:50:49;;;;;;;24.27;20.20;;;7.50;99.90;;;;;;5139764;27;20096;-84
2021/05/01 01:53:23;;;;;;;28.25;20.05;;;7.50;99.90;;;;;;5122092;27;20542;-83
2021/05/01 01:55:50;;;;;;;23.80;20.13;;;7.50;99.90;;;;;;5140698;27;20092;-85
2021/05/01 01:58:18;;;;;;;23.00;19.02;;;7.50;99.90;;;;;;5141325;27;20070;-85
2021/05/01 02:00:55;;;;;;;26.75;20.23;;;7.60;99.90;;;;;;5123168;27;20062;-85
2021/05/01 02:03:21;;;;;;;24.67;20.38;;;7.60;99.90;;;;;;5121090;27;20047;-83
2021/05/01 02:05:48;;;;;;;29.10;21.45;;;7.60;99.90;;;;;;5118463;27;20051;-83
2021/05/01 02:08:14;;;;;;;23.38;19.15;;;7.60;99.90;;;;;;5118339;27;20066;-82
2021/05/01 02:10:41;;;;;;;24.88;20.00;;;7.60;99.90;;;;;;5117239;28;20135;-86
2021/05/01 02:13:08;;;;;;;32.38;19.67;;;7.50;99.90;;;;;;5136161;27;20082;-86
2021/05/01 02:15:35;;;;;;;20.88;17.52;;;7.50;99.90;;;;;;5137976;27;20074;-86
2021/05/01 02:18:03;;;;;;;20.10;17.85;;;7.50;99.90;;;;;;5122605;27;20078;-86
2021/05/01 02:20:33;;;;;;;20.60;17.75;;;7.50;99.90;;;;;;5123352;27;20047;-86
2021/05/01 02:22:59;;;;;;;22.60;19.17;;;7.50;99.90;;;;;;5123586;27;20054;-86
2021/05/01 02:25:27;;;;;;;23.02;19.35;;;7.50;99.90;;;;;;5123863;27;20072;-86
2021/05/01 02:27:54;;;;;;;23.35;18.58;;;7.50;99.90;;;;;;5142749;27;20105;-86
2021/05/01 02:30:23;;;;;;;22.30;18.70;;;7.50;99.90;;;;;;5122914;27;20051;-87
2021/05/01 02:32:50;;;;;;;26.83;21.42;;;7.50;99.90;;;;;;5141300;27;20647;-87
2021/05/01 02:35:19;;;;;;;23.75;19.20;;;7.40;99.90;;;;;;5123482;27;20509;-87
2021/05/01 02:37:46;;;;;;;25.42;20.67;;;7.40;99.90;;;;;;5124189;27;20043;-86
2021/05/01 02:40:14;;;;;;;27.67;20.48;;;7.40;99.90;;;;;;5123270;27;20047;-86
2021/05/01 02:42:42;;;;;;;25.58;20.35;;;7.40;99.90;;;;;;5123631;27;20067;-87
2021/05/01 02:45:11;;;;;;;24.73;19.42;;;7.40;99.90;;;;;;5124325;27;20043;-86
2021/05/01 02:47:38;;;;;;;23.90;18.63;;;7.40;99.90;;;;;;5123674;27;20055;-86
2021/05/01 02:50:07;;;;;;;24.10;19.17;;;7.40;99.90;;;;;;5123501;27;20131;-86
2021/05/01 02:52:34;;;;;;;26.67;20.70;;;7.40;99.90;;;;;;5123865;27;20043;-87
2021/05/01 02:55:00;;;;;;;25.95;20.10;;;7.40;99.90;;;;;;5143080;27;20099;-87
2021/05/01 02:57:27;;;;;;;23.92;19.50;;;7.40;99.90;;;;;;5124608;27;20083;-87
2021/05/01 02:59:53;;;;;;;25.73;19.95;;;7.50;99.90;;;;;;5123837;27;20074;-87
2021/05/01 03:02:19;;;;;;;27.98;21.08;;;7.50;99.90;;;;;;5124261;27;20051;-87
2021/05/01 03:04:45;;;;;;;25.00;20.33;;;7.40;99.90;;;;;;5124937;27;20054;-87
2021/05/01 03:07:12;;;;;;;26.05;20.20;;;7.40;99.90;;;;;;5125007;27;20062;-87
2021/05/01 03:09:39;;;;;;;27.10;20.98;;;7.40;99.90;;;;;;5126181;27;20489;-86
2021/05/01 03:12:05;;;;;;;23.88;20.33;;;7.40;99.90;;;;;;5126283;27;20471;-86
2021/05/01 03:14:32;;;;;;;23.90;19.90;;;7.40;99.90;;;;;;5125197;27;20047;-87
2021/05/01 03:16:58;;;;;;;24.67;19.33;;;7.40;99.90;;;;;;5122101;27;20383;-87
2021/05/01 03:19:24;;;;;;;22.50;18.52;;;7.40;99.90;;;;;;5124742;27;20043;-86
2021/05/01 03:21:50;;;;;;;24.90;20.02;;;7.40;99.90;;;;;;5124563;27;20047;-87
2021/05/01 03:24:18;;;;;;;25.02;19.55;;;7.40;99.90;;;;;;5126240;27;20050;-87
2021/05/01 03:26:44;;;;;;;23.23;18.88;;;7.40;99.90;;;;;;5128324;27;20051;-87
2021/05/01 03:29:10;;;;;;;23.48;18.67;;;7.40;99.90;;;;;;5150737;27;20043;-87
2021/05/01 03:31:38;;;;;;;22.45;19.02;;;7.50;99.90;;;;;;5132711;27;20051;-86
2021/05/01 03:34:05;;;;;;;27.95;19.15;;;7.40;99.90;;;;;;5129630;27;20047;-87
2021/05/01 03:36:31;;;;;;;22.98;18.90;;;7.40;99.90;;;;;;5125472;27;20054;-86
2021/05/01 03:38:58;;;;;;;26.42;20.23;;;7.40;99.90;;;;;;5120104;28;20425;-85
2021/05/01 03:41:24;;;;;;;26.30;20.35;;;7.40;99.90;;;;;;5118868;27;20115;-86
2021/05/01 03:43:50;;;;;;;23.38;19.02;;;7.30;99.90;;;;;;5117981;27;20153;-85
2021/05/01 03:46:17;;;;;;;23.85;19.67;;;7.30;99.90;;;;;;5117921;28;20046;-85
2021/05/01 03:48:43;;;;;;;29.27;20.85;;;7.30;99.90;;;;;;5117718;28;20051;-86
2021/05/01 03:51:09;;;;;;;23.55;19.85;;;7.30;99.90;;;;;;5117342;28;20074;-86
2021/05/01 03:53:35;;;;;;;24.52;20.10;;;7.20;99.90;;;;;;5117177;28;20074;-86
2021/05/01 03:56:02;;;;;;;26.02;21.33;;;7.20;99.90;;;;;;5116915;28;20475;-86
2021/05/01 03:58:28;;;;;;;27.55;20.90;;;7.30;99.90;;;;;;5116745;28;20126;-86
2021/05/01 04:00:54;;;;;;;24.67;19.60;;;7.40;99.90;;;;;;5134918;28;20817;-86
2021/05/01 04:03:21;;;;;;;26.98;21.00;;;7.40;99.90;;;;;;5116206;28;20047;-87
2021/05/01 04:05:47;;;;;;;27.73;20.83;;;7.30;99.90;;;;;;5118531;28;20081;-86
2021/05/01 04:08:14;;;;;;;29.10;20.95;;;7.20;99.90;;;;;;5118572;28;20134;-86
2021/05/01 04:10:40;;;;;;;25.55;20.25;;;7.30;99.90;;;;;;5118649;28;20472;-86
2021/05/01 04:13:06;;;;;;;24.38;20.08;;;7.20;99.90;;;;;;5118370;28;20083;-84
2021/05/01 04:15:32;;;;;;;24.15;20.10;;;7.20;99.90;;;;;;5118677;28;20486;-85
2021/05/01 04:17:59;;;;;;;29.95;21.00;;;7.20;99.90;;;;;;5118902;28;20482;-85
2021/05/01 04:20:25;;;;;;;24.17;19.80;;;7.20;99.90;;;;;;5119284;28;20135;-84
2021/05/01 04:22:51;;;;;;;29.70;21.10;;;7.20;99.90;;;;;;5119232;28;20075;-85
2021/05/01 04:25:23;;;;;;;29.15;21.60;;;7.20;99.90;;;;;;5119995;28;20432;-85
2021/05/01 04:27:49;;;;;;;24.92;21.52;;;7.20;99.90;;;;;;5138278;28;20096;-85
2021/05/01 04:30:16;;;;;;;27.70;21.25;;;7.30;99.90;;;;;;5120526;28;20483;-85
2021/05/01 04:32:42;;;;;;;27.33;21.85;;;7.30;99.90;;;;;;5120894;28;20043;-85
2021/05/01 04:35:09;;;;;;;28.92;22.00;;;7.40;99.90;;;;;;5122724;27;20086;-85
2021/05/01 04:37:36;;;;;;;29.23;22.50;;;7.40;99.90;;;;;;5125999;27;20083;-85
2021/05/01 04:40:07;;;;;;;24.20;19.80;;;7.60;99.90;;;;;;5128577;27;20075;-84
2021/05/01 04:42:35;;;;;;;30.85;23.23;;;7.60;99.90;;;;;;5121733;27;20039;-84
2021/05/01 04:45:06;;;;;;;28.95;22.23;;;7.70;99.90;;;;;;5121869;27;20081;-85
2021/05/01 04:47:32;;;;;;;28.13;22.33;;;7.70;99.90;;;;;;5121516;27;20126;-85
2021/05/01 04:50:02;;;;;;;25.23;20.98;;;7.80;99.90;;;;;;5121895;27;20107;-84
2021/05/01 04:52:30;;;;;;;24.65;19.98;;;7.80;99.90;;;;;;5121673;27;20043;-84
2021/05/01 04:55:05;;;;;;;20.55;18.05;;;7.90;99.90;;;;;;5121508;27;20130;-84
2021/05/01 04:57:31;;;;;;;20.73;17.70;;;7.90;99.90;;;;;;5121909;27;20043;-85
2021/05/01 04:59:57;;;;;;;22.33;18.45;;;8.00;99.90;;;;;;5121536;27;20539;-84
2021/05/01 05:02:23;;;;;;;22.17;17.42;;;8.00;99.90;;;;;;5122317;27;20043;-84
2021/05/01 05:04:55;;;;;;;20.20;17.95;;;8.10;99.90;;;;;;5122365;27;20039;-84
2021/05/01 05:07:21;;;;;;;19.98;16.70;;;8.10;99.90;;;;;;5122372;27;20051;-84
2021/05/01 05:09:53;;;;;;;18.45;16.30;;;8.20;99.90;;;;;;5122125;27;20475;-84
2021/05/01 05:12:19;;;;;;;19.25;16.77;;;8.30;99.90;;;;;;5121979;27;20047;-84
2021/05/01 05:14:45;;;;;;;18.40;16.17;;;8.50;99.90;;;;;;5122440;27;20073;-85
2021/05/01 05:17:11;;;;;;;18.42;16.42;;;8.70;99.90;;;;;;5121654;27;20043;-85
2021/05/01 05:19:43;;;;;;;18.48;15.82;;;8.80;99.90;;;;;;5140372;27;20054;-85
2021/05/01 05:22:09;;;;;;;19.83;16.33;;;9.10;99.90;;;;;;5140981;27;20451;-85
2021/05/01 05:24:37;;;;;;;22.40;16.17;;;9.30;99.90;;;;;;5140905;27;20039;-84
2021/05/01 05:27:04;;;;;;;18.73;16.50;;;9.50;99.90;;;;;;5141017;27;20051;-85
2021/05/01 05:29:32;;;;;;;17.70;14.60;;;9.80;99.90;;;;;;5122759;27;20089;-85
2021/05/01 05:31:59;;;;;;;18.30;16.35;;;10.00;99.90;;;;;;5141582;27;20505;-84
2021/05/01 05:34:25;;;;;;;18.20;15.50;;;10.10;99.90;;;;;;5122889;27;20051;-85
2021/05/01 05:36:52;;;;;;;17.42;15.38;;;10.20;99.90;;;;;;5141559;27;20111;-85
2021/05/01 05:39:18;;;;;;;17.67;15.10;;;10.40;99.90;;;;;;5123661;27;20064;-85
2021/05/01 05:41:46;;;;;;;21.08;14.40;;;10.50;99.90;;;;;;5122626;27;20047;-85
2021/05/01 05:44:18;;;;;;;18.77;15.05;;;10.70;99.90;;;;;;5122545;27;20082;-85
2021/05/01 05:46:45;;;;;;;22.13;14.77;;;11.10;99.90;;;;;;5121691;27;20058;-85
2021/05/01 05:49:11;;;;;;;18.42;13.77;;;11.40;99.90;;;;;;5123469;27;20051;-84
2021/05/01 05:51:37;;;;;;;21.67;13.95;;;11.60;99.90;;;;;;5123776;27;20076;-85
2021/05/01 05:54:04;;;;;;;19.45;15.00;;;11.70;99.90;;;;;;5128225;27;20074;-85
2021/05/01 05:56:35;;;;;;;17.27;13.75;;;11.80;99.90;;;;;;5110228;28;20075;-85
2021/05/01 05:59:03;;;;;;;17.73;14.70;;;12.20;99.90;;;;;;5119939;28;20040;-85
2021/05/01 06:01:32;;;;;;;16.40;14.00;;;12.70;99.90;;;;;;5100424;28;20071;-85
2021/05/01 06:03:59;;;;;;;14.30;11.77;;;13.00;99.90;;;;;;5101212;28;20050;-85
2021/05/01 06:06:30;;;;;;;18.88;13.10;;;14.50;99.90;;;;;;5101328;27;20068;-85
2021/05/01 06:08:57;;;;;;;25.77;14.77;;;15.50;99.90;;;;;;5097162;28;20040;-85
2021/05/01 06:11:25;;;;;;;20.98;17.45;;;15.80;99.90;;;;;;5098682;28;20072;-85
2021/05/01 06:13:53;;;;;;;24.08;17.17;;;15.20;99.90;;;;;;5100591;28;20069;-85
2021/05/01 06:16:22;;;;;;;22.50;17.63;;;14.70;99.90;;;;;;5100595;28;20075;-85
2021/05/01 06:18:51;;;;;;;19.77;16.00;;;15.00;99.90;;;;;;5100402;28;20051;-85
2021/05/01 06:21:18;;;;;;;21.98;17.55;;;15.30;99.90;;;;;;5100184;28;20047;-85
2021/05/01 06:23:45;;;;;;;20.48;18.27;;;16.20;99.90;;;;;;5101543;28;20101;-86
2021/05/01 06:26:12;;;;;;;19.83;17.08;;;16.80;99.90;;;;;;5101106;28;20048;-85
2021/05/01 06:28:41;;;;;;;21.92;17.77;;;17.70;99.90;;;;;;5101173;28;20056;-85
2021/05/01 06:31:08;;;;;;;21.60;17.58;;;17.90;99.90;;;;;;5100805;28;20075;-85
2021/05/01 06:33:41;;;;;;;23.65;18.50;;;17.60;99.90;;;;;;5101297;28;20044;-85
2021/05/01 06:36:12;;;;;;;22.45;16.63;;;16.50;99.90;;;;;;5101709;28;20191;-85
2021/05/01 06:38:39;;;;;;;21.98;18.25;;;17.30;99.90;;;;;;5101237;28;20468;-85
2021/05/01 06:41:12;;;;;;;21.10;16.45;;;17.70;99.90;;;;;;5101042;28;20051;-85
2021/05/01 06:44:07;;;;;;;21.90;18.00;;;18.00;99.90;;;;;;5119073;28;20061;-84
2021/05/01 06:46:38;;;;;;;26.30;18.50;;;17.90;99.90;;;;;;5094033;28;20165;-85
2021/05/01 06:49:11;;;;;;;24.02;19.95;;;18.50;99.90;;;;;;5101635;28;20070;-85
2021/05/01 06:51:39;;;;;;;26.27;23.05;;;19.30;96.60;;;;;;5100186;28;20134;-85
2021/05/01 06:54:10;;;;;;;30.17;25.58;;;19.20;94.80;;;;;;5100955;28;20150;-85
2021/05/01 06:56:39;;;;;;;24.05;21.38;;;20.20;93.50;;;;;;5100514;28;20529;-84
2021/05/01 06:59:07;;;;;;;37.83;32.67;;;21.20;88.00;;;;;;5119844;28;20126;-84
2021/05/01 07:01:36;;;;;;;25.95;21.30;;;21.40;84.30;;;;;;5120948;28;20047;-84
2021/05/01 07:04:05;;;;;;;83.40;64.43;;;22.10;77.10;;;;;;5118908;28;20054;-85
2021/05/01 07:06:33;;;;;;;20.02;17.85;;;21.30;77.50;;;;;;5102049;28;20463;-85
2021/05/01 07:09:05;;;;;;;20.38;18.25;;;21.80;77.10;;;;;;5101521;28;20068;-84
2021/05/01 07:11:31;;;;;;;20.20;17.95;;;20.00;82.90;;;;;;5101569;28;20055;-85
2021/05/01 07:14:10;;;;;;;20.50;17.20;;;18.50;92.20;;;;;;5120936;28;20066;-85
2021/05/01 07:16:39;;;;;;;19.30;17.40;;;16.90;99.90;;;;;;5101427;28;20075;-84
2021/05/01 07:19:09;;;;;;;19.05;16.90;;;16.60;99.90;;;;;;5100937;28;20047;-84
2021/05/01 07:21:36;;;;;;;18.80;16.80;;;17.10;99.90;;;;;;5099722;28;20415;-84
2021/05/01 07:24:03;;;;;;;20.63;17.63;;;17.80;99.90;;;;;;5117789;28;20135;-85
2021/05/01 07:26:35;;;;;;;20.95;18.33;;;17.30;99.90;;;;;;5100112;28;20047;-84
2021/05/01 07:29:09;;;;;;;23.02;18.30;;;16.40;99.90;;;;;;5098722;28;20477;-83
2021/05/01 07:31:40;;;;;;;18.02;16.05;;;16.20;99.90;;;;;;5100802;28;20075;-84
2021/05/01 07:34:13;;;;;;;17.00;14.30;;;17.40;99.90;;;;;;5100451;28;20101;-84
2021/05/01 07:36:44;;;;;;;15.35;13.55;;;18.30;99.90;;;;;;5120439;28;20043;-85
2021/05/01 07:39:12;;;;;;;14.50;13.05;;;18.60;94.40;;;;;;5103825;28;20077;-85
2021/05/01 07:41:43;;;;;;;14.70;13.30;;;19.80;90.60;;;;;;5118303;28;20461;-84
2021/05/01 07:44:11;;;;;;;16.08;14.45;;;21.00;79.10;;;;;;5100589;28;20130;-84
2021/05/01 07:46:41;;;;;;;14.90;13.32;;;21.10;76.50;;;;;;5100184;28;20189;-83
2021/05/01 07:49:09;;;;;;;15.70;13.95;;;21.80;74.90;;;;;;5101367;28;20048;-84
2021/05/01 07:51:37;;;;;;;14.38;12.45;;;21.70;71.80;;;;;;5098864;28;20075;-84
2021/05/01 07:54:11;;;;;;;14.23;12.82;;;21.50;73.30;;;;;;5098746;28;20051;-84
2021/05/01 07:56:37;;;;;;;12.65;11.13;;;22.40;71.30;;;;;;5100054;28;20126;-84
2021/05/01 07:59:04;;;;;;;12.00;10.88;;;23.00;67.20;;;;;;5100350;28;20043;-84
2021/05/01 08:01:49;;;;;;;11.82;10.75;;;24.00;62.50;;;;;;5100172;28;20048;-84
2021/05/01 08:04:15;;;;;;;14.23;12.60;;;21.40;62.90;;;;;;5100333;28;20052;-83
2021/05/01 08:06:42;;;;;;;16.35;14.40;;;19.90;67.70;;;;;;5099587;28;20050;-84
2021/05/01 08:09:10;;;;;;;15.48;13.80;;;18.30;74.50;;;;;;5100872;28;20058;-82
2021/05/01 08:11:41;;;;;;;15.90;14.38;;;18.30;80.00;;;;;;5102486;28;20055;-82
2021/05/01 08:14:08;;;;;;;307.50;227.65;;;18.30;81.70;;;;;;5103106;28;20076;-83
2021/05/01 08:16:34;;;;;;;17.02;15.32;;;18.30;79.40;;;;;;5104601;28;20077;-82
2021/05/01 08:19:08;;;;;;;24.83;21.45;;;18.20;80.30;;;;;;5103926;28;20082;-83
2021/05/01 08:21:35;;;;;;;;;;;18.00;82.50;;;;;;5121207;28;20097;-82
2021/05/01 08:24:03;;;;;;;12.45;11.13;;;18.20;90.00;;;;;;5102988;28;19924;-81
2021/05/01 08:26:30;;;;;;;17.13;15.40;;;20.00;81.00;;;;;;5101784;28;20055;-82
2021/05/01 08:28:56;;;;;;;14.50;13.02;;;20.20;75.80;;;;;;5101846;28;20048;-82
2021/05/01 08:31:25;;;;;;;14.68;12.65;;;20.20;74.40;;;;;;5102730;28;20052;-83
2021/05/01 08:33:52;;;;;;;15.85;14.10;;;19.50;75.80;;;;;;5103885;28;20081;-81
2021/05/01 08:36:26;;;;;;;16.90;15.23;;;18.80;81.00;;;;;;5100925;28;20067;-84
2021/05/01 08:38:53;;;;;;;17.05;14.20;;;17.90;84.70;;;;;;5101306;28;20093;-82
2021/05/01 08:41:21;;;;;;;15.18;13.65;;;17.00;91.30;;;;;;5118368;28;20044;-82
2021/05/01 08:43:47;;;;;;;14.25;12.85;;;16.70;94.70;;;;;;5117968;28;20048;-82
2021/05/01 08:49:51;;;;;;;15.00;13.50;;;16.70;96.90;;;;;;5119107;28;20142;-81
2021/05/01 08:52:17;;;;;;;14.20;12.60;;;16.80;94.60;;;;;;5100451;28;20079;-82
2021/05/01 08:55:20;;;;;;;14.10;12.68;;;16.50;96.30;;;;;;5100356;28;20487;-81
2021/05/01 08:57:47;;;;;;;13.93;12.45;;;16.70;95.90;;;;;;5118211;28;20043;-81
2021/05/01 09:00:13;;;;;;;14.20;12.80;;;16.40;97.50;;;;;;5100600;28;20089;-80
2021/05/01 09:03:30;;;;;;;13.48;12.13;;;17.50;96.30;;;;;;5099857;28;20044;-81
2021/05/01 09:06:24;;;;;;;12.45;11.25;;;17.80;92.00;;;;;;5099894;28;20100;-81
2021/05/01 09:08:59;;;;;;;11.75;10.18;;;18.00;90.40;;;;;;5118674;28;20051;-81
2021/05/01 09:11:50;;;;;;;12.35;11.15;;;18.40;89.30;;;;;;5098951;28;20483;-81
2021/05/01 09:14:22;;;;;;;13.02;11.48;;;20.20;82.70;;;;;;5099122;28;20048;-81
2021/05/01 09:17:12;;;;;;;12.30;11.02;;;19.90;76.60;;;;;;5099468;28;20102;-81
2021/05/01 09:19:42;;;;;;;11.65;10.55;;;19.90;77.00;;;;;;5117235;28;20072;-80
2021/05/01 09:22:11;;;;;;;11.50;10.38;;;19.10;78.00;;;;;;5101686;28;20047;-81
2021/05/01 09:24:38;;;;;;;11.18;10.15;;;17.80;84.10;;;;;;5099672;28;20139;-81
2021/05/01 09:27:06;;;;;;;10.52;9.43;;;17.50;82.60;;;;;;5118142;28;20461;-81
2021/05/01 09:30:20;;;;;;;10.45;9.45;;;16.60;88.00;;;;;;5117120;28;20109;-81
2021/05/01 09:32:47;;;;;;;9.98;8.93;;;15.80;95.50;;;;;;5117040;28;20083;-81
2021/05/01 09:35:31;;;;;;;10.45;9.45;;;16.30;96.30;;;;;;5100530;28;20081;-82
2021/05/01 09:37:57;;;;;;;;;;;17.40;92.00;;;;;;5117572;28;20036;-81
2021/05/01 09:40:30;;;;;;;10.18;8.60;;;19.00;88.50;;;;;;5117792;28;19981;-81
2021/05/01 09:46:43;;;;;;;8.40;7.70;;;24.00;65.20;;;;;;5097038;28;20055;-81
2021/05/01 09:49:17;;;;;;;10.15;9.15;;;25.50;56.50;;;;;;5060731;28;20050;-80
2021/05/01 09:52:01;;;;;;;9.70;8.80;;;23.70;55.30;;;;;;5079756;28;20127;-81
2021/05/01 09:54:39;;;;;;;8.65;7.95;;;23.80;56.60;;;;;;5097315;28;20124;-81
2021/05/01 09:57:07;;;;;;;8.73;8.02;;;22.90;56.60;;;;;;5079100;28;20064;-81
2021/05/01 10:02:37;;;;;;;42.58;30.73;;;20.20;60.30;;;;;;5097051;28;20062;-82
2021/05/01 10:05:13;;;;;;;104.50;60.50;;;19.20;63.10;;;;;;5079412;28;20083;-80
2021/05/01 10:07:42;;;;;;;7.93;7.13;;;18.90;66.10;;;;;;5078875;28;20554;-82
2021/05/01 10:10:09;;;;;;;7.25;6.65;;;18.80;66.60;;;;;;5079468;28;20056;-81
2021/05/01 10:12:36;;;;;;;6.72;6.13;;;18.90;66.30;;;;;;5079634;28;20077;-81
2021/05/01 10:15:17;;;;;;;8.90;6.88;;;18.60;64.10;;;;;;5078484;28;20052;-81
2021/05/01 10:17:48;;;;;;;8.23;7.43;;;19.20;65.10;;;;;;5078519;28;20127;-81
2021/05/01 10:21:07;;;;;;;8.70;7.88;;;19.20;66.00;;;;;;5079491;28;20469;-81
2021/05/01 10:23:46;;;;;;;8.15;7.45;;;19.40;66.80;;;;;;5078023;28;20081;-81
2021/05/01 10:26:13;;;;;;;7.90;7.20;;;19.00;65.40;;;;;;5096748;28;20082;-81
2021/05/01 10:28:47;;;;;;;5.75;5.35;;;18.90;68.10;;;;;;5078857;28;20121;-82
2021/05/01 10:31:13;;;;;;;6.32;5.72;;;18.40;67.00;;;;;;5078074;28;20044;-81
2021/05/01 10:33:59;;;;;;;7.50;6.80;;;18.60;67.60;;;;;;5096054;28;20075;-80
2021/05/01 10:36:33;;;;;;;9.43;7.45;;;18.20;68.60;;;;;;5082090;28;20108;-82
2021/05/01 10:39:09;;;;;;;8.73;7.05;;;18.30;70.00;;;;;;5100677;28;20056;-82
2021/05/01 10:41:37;;;;;;;6.78;6.15;;;17.90;71.20;;;;;;5081002;28;20048;-80
2021/05/01 10:44:09;;;;;;;7.50;6.80;;;18.00;71.20;;;;;;5096109;28;20044;-81
2021/05/01 10:46:41;;;;;;;6.83;6.23;;;18.20;69.40;;;;;;5077409;28;20077;-80
2021/05/01 10:49:12;;;;;;;6.82;6.20;;;18.30;68.90;;;;;;5077128;28;20056;-80
2021/05/01 10:51:41;;;;;;;6.70;6.10;;;18.00;69.90;;;;;;5095630;28;20052;-80
2021/05/01 10:54:10;;;;;;;7.68;6.97;;;18.00;70.40;;;;;;5077485;28;20109;-80
2021/05/01 11:00:12;;;;;;;8.82;6.85;;;18.50;69.10;;;;;;5095331;28;20039;-81
2021/05/01 11:02:43;;;;;;;7.10;6.60;;;18.60;69.30;;;;;;5080501;28;20098;-81
2021/05/01 11:05:17;;;;;;;7.63;6.93;;;19.00;67.70;;;;;;5079257;28;20044;-81
2021/05/01 11:08:16;;;;;;;7.00;6.40;;;19.50;66.60;;;;;;5081668;28;20075;-80
2021/05/01 11:10:45;;;;;;;6.50;5.95;;;19.10;65.30;;;;;;5077828;28;20080;-80
2021/05/01 11:13:27;;;;;;;6.78;6.05;;;19.60;65.90;;;;;;5077244;28;20135;-79
2021/05/01 11:16:00;;;;;;;5.90;5.40;;;20.50;64.00;;;;;;5076756;28;20168;-80
2021/05/01 11:18:28;;;;;;;7.68;6.68;;;20.70;61.00;;;;;;5076468;28;20087;-80
2021/05/01 11:21:41;;;;;;;6.18;5.57;;;20.20;62.70;;;;;;5081503;28;20135;-81
2021/05/01 11:24:09;;;;;;;6.20;5.70;;;19.90;63.40;;;;;;5085749;28;20071;-80
2021/05/01 11:26:36;;;;;;;8.38;7.55;;;19.80;65.10;;;;;;5074745;28;20087;-81
2021/05/01 11:29:10;;;;;;;7.35;6.75;;;19.20;64.70;;;;;;5057990;28;20488;-81
2021/05/01 11:31:36;;;;;;;;;;;18.60;66.10;;;;;;5083679;28;20069;-81
2021/05/01 11:34:05;;;;;;;6.00;5.50;;;18.00;68.10;;;;;;5105038;28;20350;-80
2021/05/01 11:36:44;;;;;;;5.80;5.30;;;17.60;67.50;;;;;;5089316;28;20135;-81
2021/05/01 11:39:11;;;;;;;9.40;7.43;;;17.70;69.70;;;;;;5081345;28;20085;-80
2021/05/01 11:41:41;;;;;;;7.07;6.40;;;17.80;68.60;;;;;;5077854;28;20044;-81
2021/05/01 11:44:09;;;;;;;11.02;9.20;;;17.50;69.00;;;;;;5077866;28;20131;-80
2021/05/01 11:46:45;;;;;;;53.83;30.90;;;17.40;68.50;;;;;;5097328;28;20086;-80
2021/05/01 11:49:13;;;;;;;39.95;21.67;;;17.40;71.20;;;;;;5115714;28;20047;-80
2021/05/01 11:52:01;;;;;;;29.77;18.05;;;17.70;72.70;;;;;;5115492;28;20079;-80
2021/05/01 11:58:09;;;;;;;12.57;10.40;;;17.90;70.10;;;;;;5117104;28;20069;-81
2021/05/01 12:00:41;;;;;;;74.35;39.15;;;17.70;71.80;;;;;;5099308;28;20097;-80
2021/05/01 12:03:21;;;;;;;15.93;10.13;;;17.90;70.60;;;;;;5098525;28;20097;-80
2021/05/01 12:05:59;;;;;;;20.50;14.63;;;18.30;70.70;;;;;;5117959;28;20050;-81
2021/05/01 12:08:27;;;;;;;33.47;21.00;;;18.20;70.90;;;;;;5100043;28;20077;-80
2021/05/01 12:11:04;;;;;;;31.77;20.05;;;17.80;71.30;;;;;;5098652;28;20074;-83
2021/05/01 12:13:36;;;;;;;13.75;8.05;;;17.40;71.70;;;;;;5098941;28;20048;-80
2021/05/01 12:16:05;;;;;;;11.13;8.98;;;17.20;71.70;;;;;;5098446;28;20044;-80
2021/05/01 12:18:52;;;;;;;32.88;19.55;;;17.20;72.60;;;;;;5098442;28;20479;-79
2021/05/01 12:21:31;;;;;;;19.83;13.60;;;16.90;73.20;;;;;;5123028;28;20048;-83
2021/05/01 12:23:59;;;;;;;8.60;7.60;;;17.00;72.50;;;;;;5101370;28;20408;-84
2021/05/01 12:26:45;;;;;;;6.20;5.68;;;17.30;74.10;;;;;;5120636;28;20065;-84
2021/05/01 12:29:18;;;;;;;9.00;6.60;;;17.00;73.40;;;;;;5101111;28;20460;-84
2021/05/01 12:31:49;;;;;;;12.25;8.30;;;17.10;73.00;;;;;;5116349;28;20072;-83
2021/05/01 12:34:23;;;;;;;15.38;10.27;;;17.60;72.00;;;;;;5116019;28;20058;-84
2021/05/01 12:36:51;;;;;;;10.40;7.63;;;17.50;72.10;;;;;;5104857;28;20107;-84
2021/05/01 12:39:19;;;;;;;15.18;9.43;;;17.40;72.00;;;;;;5123840;28;20073;-84
2021/05/01 12:41:50;;;;;;;12.45;7.78;;;17.30;70.40;;;;;;5120263;28;20481;-86
2021/05/01 12:44:47;;;;;;;8.82;7.45;;;17.20;71.30;;;;;;5111375;28;20077;-84
2021/05/01 12:47:36;;;;;;;10.73;7.88;;;17.10;69.80;;;;;;5108650;28;20077;-86
2021/05/01 12:50:17;;;;;;;8.00;6.00;;;17.40;72.80;;;;;;5127661;28;20069;-84
2021/05/01 12:52:45;;;;;;;12.38;8.40;;;17.70;70.40;;;;;;5106863;28;20048;-85
2021/05/01 12:55:12;;;;;;;8.90;7.00;;;17.70;71.70;;;;;;5110691;28;20075;-85
2021/05/01 12:57:40;;;;;;;6.80;5.80;;;17.60;72.20;;;;;;5133343;28;20051;-84
2021/05/01 13:00:26;;;;;;;6.13;5.57;;;17.60;73.20;;;;;;5115082;28;20063;-85
2021/05/01 13:03:05;;;;;;;6.07;5.57;;;17.70;72.60;;;;;;5118684;28;20043;-85
2021/05/01 13:05:35;;;;;;;6.88;6.18;;;17.70;73.80;;;;;;5118839;28;20035;-84
2021/05/01 13:08:03;;;;;;;6.72;5.68;;;17.10;71.90;;;;;;5110123;28;20452;-84
2021/05/01 13:10:31;;;;;;;6.10;5.57;;;16.90;72.50;;;;;;5122222;28;20052;-83
2021/05/01 13:13:07;;;;;;;29.83;21.13;;;16.80;73.70;;;;;;5109343;28;20047;-85
2021/05/01 13:16:00;;;;;;;19.23;10.30;;;16.50;73.80;;;;;;5107578;28;20043;-85